createdAt,value
2022-10-05T00:00:54.232Z,17.30
2022-10-05T00:03:25.252Z,17.30
2022-10-05T00:05:56.145Z,17.20
2022-10-05T00:08:28.079Z,17.10
2022-10-05T00:10:57.544Z,17.00
2022-10-05T00:13:30.057Z,17.00
2022-10-05T00:16:02.669Z,17.00
2022-10-05T00:18:34.349Z,17.10
2022-10-05T00:21:05.344Z,17.00
2022-10-05T00:23:35.072Z,17.00
2022-10-05T00:26:22.556Z,17.00
2022-10-05T00:28:53.229Z,17.00
2022-10-05T00:31:26.031Z,17.00
2022-10-05T00:33:57.864Z,16.80
2022-10-05T00:36:27.503Z,16.80
2022-10-05T00:38:56.999Z,16.80
2022-10-05T00:41:29.722Z,16.80
2022-10-05T00:44:20.041Z,16.80
2022-10-05T00:47:16.027Z,16.80
2022-10-05T00:50:17.631Z,16.80
2022-10-05T00:52:55.957Z,16.70
2022-10-05T00:55:31.173Z,16.70
2022-10-05T00:58:20.068Z,16.70
2022-10-05T01:00:55.877Z,16.70
2022-10-05T01:03:51.006Z,16.70
2022-10-05T01:06:44.639Z,16.70
2022-10-05T01:09:29.860Z,16.60
2022-10-05T01:12:12.068Z,16.60
2022-10-05T01:14:47.080Z,16.60
2022-10-05T01:17:22.622Z,16.60
2022-10-05T01:20:14.478Z,16.60
2022-10-05T01:23:19.924Z,16.40
2022-10-05T01:26:10.407Z,16.30
2022-10-05T01:28:51.832Z,16.30
2022-10-05T01:31:24.390Z,16.40
2022-10-05T01:34:23.902Z,16.40
2022-10-05T01:37:05.519Z,16.30
2022-10-05T01:39:47.571Z,16.30
2022-10-05T01:42:25.664Z,16.30
2022-10-05T01:45:01.027Z,16.30
2022-10-05T01:47:33.546Z,16.30
2022-10-05T01:50:07.057Z,16.20
2022-10-05T01:53:01.008Z,16.20
2022-10-05T01:55:51.704Z,16.10
2022-10-05T01:58:46.680Z,16.20
2022-10-05T02:01:25.375Z,16.10
2022-10-05T02:04:30.986Z,16.10
2022-10-05T02:06:50.169Z,16.00
2022-10-05T02:09:28.453Z,16.00
2022-10-05T02:12:03.965Z,15.90
2022-10-05T02:14:52.511Z,15.90
2022-10-05T02:17:25.012Z,15.90
2022-10-05T02:19:55.246Z,15.70
2022-10-05T02:22:30.478Z,15.70
2022-10-05T02:25:44.111Z,15.80
2022-10-05T02:28:18.117Z,15.90
2022-10-05T02:30:57.480Z,15.90
2022-10-05T02:33:30.707Z,15.70
2022-10-05T02:36:22.913Z,15.70
2022-10-05T02:39:09.936Z,15.70
2022-10-05T02:42:04.365Z,15.30
2022-10-05T02:44:53.338Z,15.50
2022-10-05T02:47:35.809Z,15.60
2022-10-05T02:50:08.582Z,15.50
2022-10-05T02:52:49.925Z,15.50
2022-10-05T02:55:41.506Z,15.50
2022-10-05T02:58:24.069Z,15.40
2022-10-05T03:01:00.325Z,15.40
2022-10-05T03:03:42.100Z,15.40
2022-10-05T03:06:23.453Z,15.40
2022-10-05T03:09:04.728Z,15.30
2022-10-05T03:11:37.690Z,15.30
2022-10-05T03:14:25.468Z,15.30
2022-10-05T03:17:17.395Z,15.20
2022-10-05T03:20:14.802Z,15.20
2022-10-05T03:22:53.902Z,15.20
2022-10-05T03:25:55.952Z,15.30
2022-10-05T03:28:37.830Z,15.30
2022-10-05T03:31:16.073Z,15.10
2022-10-05T03:33:54.627Z,15.20
2022-10-05T03:36:27.925Z,15.10
2022-10-05T03:39:01.086Z,15.10
2022-10-05T03:41:33.985Z,15.10
2022-10-05T03:44:13.684Z,15.00
2022-10-05T03:47:10.484Z,15.00
2022-10-05T03:49:49.027Z,15.00
2022-10-05T03:52:24.616Z,15.00
2022-10-05T03:55:03.900Z,15.00
2022-10-05T03:57:37.480Z,14.90
2022-10-05T04:00:10.074Z,14.70
2022-10-05T04:03:07.943Z,14.70
2022-10-05T04:05:40.814Z,14.70
2022-10-05T04:08:31.920Z,14.70
2022-10-05T04:11:04.885Z,14.70
2022-10-05T04:13:35.567Z,14.80
2022-10-05T04:16:29.131Z,14.80
2022-10-05T04:19:02.293Z,14.80
2022-10-05T04:21:41.545Z,14.80
2022-10-05T04:24:14.225Z,14.80
2022-10-05T04:26:49.825Z,14.70
2022-10-05T04:29:40.736Z,14.70
2022-10-05T04:32:30.376Z,14.70
2022-10-05T04:35:20.271Z,14.60
2022-10-05T04:38:08.431Z,14.60
2022-10-05T04:40:56.656Z,14.60
2022-10-05T04:43:45.980Z,14.60
2022-10-05T04:46:36.904Z,14.50
2022-10-05T04:49:36.804Z,14.50
2022-10-05T04:52:31.551Z,14.40
2022-10-05T04:55:04.217Z,14.40
2022-10-05T04:57:51.752Z,14.30
2022-10-05T05:00:28.366Z,14.30
2022-10-05T05:03:03.650Z,14.30
2022-10-05T05:06:16.253Z,14.20
2022-10-05T05:08:41.374Z,14.20
2022-10-05T05:11:28.276Z,14.30
2022-10-05T05:14:19.284Z,14.30
2022-10-05T05:16:58.087Z,14.30
2022-10-05T05:19:42.697Z,14.30
2022-10-05T05:22:21.171Z,14.30
2022-10-05T05:25:11.253Z,14.30
2022-10-05T05:27:50.026Z,14.10
2022-10-05T05:30:44.133Z,14.20
2022-10-05T05:33:24.084Z,14.00
2022-10-05T05:36:06.927Z,14.10
2022-10-05T05:38:51.443Z,14.00
2022-10-05T05:41:29.677Z,14.00
2022-10-05T05:44:21.711Z,14.00
2022-10-05T05:47:07.424Z,14.00
2022-10-05T05:50:07.785Z,14.00
2022-10-05T05:52:54.301Z,14.00
2022-10-05T05:55:30.221Z,13.90
2022-10-05T05:58:16.731Z,14.00
2022-10-05T06:00:50.934Z,13.70
2022-10-05T06:03:38.721Z,13.80
2022-10-05T06:06:17.585Z,14.00
2022-10-05T06:08:56.203Z,14.00
2022-10-05T06:11:35.851Z,14.00
2022-10-05T06:14:08.478Z,14.30
2022-10-05T06:16:50.241Z,14.40
2022-10-05T06:19:22.655Z,14.70
2022-10-05T06:22:08.770Z,14.90
2022-10-05T06:24:41.694Z,15.20
2022-10-05T06:27:24.277Z,15.20
2022-10-05T06:30:15.356Z,15.20
2022-10-05T06:32:52.642Z,15.30
2022-10-05T06:35:38.929Z,15.50
2022-10-05T06:38:47.260Z,15.70
2022-10-05T06:41:34.889Z,16.00
2022-10-05T06:44:08.357Z,16.10
2022-10-05T06:46:51.568Z,16.30
2022-10-05T06:49:28.475Z,16.40
2022-10-05T06:52:37.080Z,16.50
2022-10-05T06:55:14.314Z,16.70
2022-10-05T06:58:02.661Z,16.80
2022-10-05T07:00:41.367Z,17.00
2022-10-05T07:03:30.667Z,17.10
2022-10-05T07:06:05.860Z,17.10
2022-10-05T07:08:56.464Z,17.10
2022-10-05T07:11:35.319Z,17.40
2022-10-05T07:14:24.449Z,17.70
2022-10-05T07:17:18.353Z,17.80
2022-10-05T07:20:06.376Z,17.90
2022-10-05T07:22:48.479Z,17.90
2022-10-05T07:25:26.905Z,18.20
2022-10-05T07:28:08.038Z,17.70
2022-10-05T07:30:46.518Z,17.70
2022-10-05T07:33:19.434Z,17.90
2022-10-05T07:36:29.615Z,17.90
2022-10-05T07:39:08.064Z,17.80
2022-10-05T07:41:48.225Z,18.00
2022-10-05T07:44:24.506Z,18.20
2022-10-05T07:47:03.192Z,18.20
2022-10-05T07:49:57.320Z,18.60
2022-10-05T07:52:41.825Z,18.40
2022-10-05T07:55:25.365Z,18.80
2022-10-05T07:58:19.147Z,18.90
2022-10-05T08:01:24.113Z,18.70
2022-10-05T08:04:08.370Z,18.70
2022-10-05T08:06:42.094Z,18.80
2022-10-05T08:09:17.204Z,19.00
2022-10-05T08:12:06.139Z,19.20
2022-10-05T08:14:47.487Z,19.30
2022-10-05T08:17:26.466Z,19.50
2022-10-05T08:20:20.631Z,19.40
2022-10-05T08:22:56.006Z,19.60
2022-10-05T08:25:28.546Z,19.50
2022-10-05T08:28:06.811Z,19.60
2022-10-05T08:30:39.393Z,19.50
2022-10-05T08:33:14.552Z,19.90
2022-10-05T08:35:47.988Z,20.00
2022-10-05T08:38:23.293Z,20.50
2022-10-05T08:41:25.943Z,20.40
2022-10-05T08:44:16.302Z,20.90
2022-10-05T08:47:05.447Z,20.30
2022-10-05T08:50:09.676Z,20.50
2022-10-05T08:52:45.000Z,20.50
2022-10-05T08:55:37.019Z,20.50
2022-10-05T08:58:30.804Z,20.50
2022-10-05T09:01:03.323Z,20.90
2022-10-05T09:03:35.937Z,21.20
2022-10-05T09:06:25.131Z,21.30
2022-10-05T09:09:25.104Z,21.50
2022-10-05T09:12:00.168Z,21.90
2022-10-05T09:14:41.524Z,21.50
2022-10-05T09:17:35.856Z,21.70
2022-10-05T09:20:24.669Z,21.90
2022-10-05T09:22:59.868Z,21.70
2022-10-05T09:25:43.704Z,21.90
2022-10-05T09:28:14.005Z,22.10
2022-10-05T09:30:57.463Z,22.20
2022-10-05T09:33:39.824Z,21.70
2022-10-05T09:36:15.899Z,21.70
2022-10-05T09:38:50.843Z,22.40
2022-10-05T09:41:39.110Z,22.40
2022-10-05T09:44:15.133Z,22.30
2022-10-05T09:46:57.171Z,22.70
2022-10-05T09:49:36.484Z,23.00
2022-10-05T09:52:09.605Z,22.60
2022-10-05T09:54:43.930Z,22.40
2022-10-05T09:57:34.079Z,22.90
2022-10-05T10:00:26.464Z,22.20
2022-10-05T10:03:05.596Z,22.20
2022-10-05T10:05:57.186Z,22.20
2022-10-05T10:08:35.542Z,22.30
2022-10-05T10:11:11.015Z,22.60
2022-10-05T10:14:10.724Z,23.00
2022-10-05T10:16:49.611Z,22.40
2022-10-05T10:19:22.156Z,23.00
2022-10-05T10:22:13.012Z,23.10
2022-10-05T10:25:03.847Z,23.20
2022-10-05T10:28:09.641Z,23.10
2022-10-05T10:31:03.476Z,23.30
2022-10-05T10:34:01.669Z,23.50
2022-10-05T10:36:42.996Z,23.40
2022-10-05T10:39:36.502Z,23.70
2022-10-05T10:42:44.160Z,24.20
2022-10-05T10:45:45.560Z,23.60
2022-10-05T10:48:20.918Z,23.60
2022-10-05T10:51:02.129Z,24.10
2022-10-05T10:53:49.008Z,23.40
2022-10-05T10:56:55.521Z,23.40
2022-10-05T10:59:51.136Z,23.80
2022-10-05T11:02:40.287Z,23.80
2022-10-05T11:05:30.907Z,23.00
2022-10-05T11:08:21.577Z,23.20
2022-10-05T11:11:03.084Z,24.10
2022-10-05T11:13:44.344Z,23.70
2022-10-05T11:16:33.351Z,23.50
2022-10-05T11:19:17.607Z,23.50
2022-10-05T11:22:15.839Z,23.60
2022-10-05T11:24:54.762Z,23.90
2022-10-05T11:27:36.131Z,24.60
2022-10-05T11:30:28.305Z,24.50
2022-10-05T11:33:22.040Z,24.10
2022-10-05T11:36:19.497Z,23.80
2022-10-05T11:39:09.156Z,24.30
2022-10-05T11:41:56.782Z,24.50
2022-10-05T11:44:47.945Z,24.10
2022-10-05T11:47:23.404Z,24.40
2022-10-05T11:50:03.331Z,24.30
2022-10-05T11:52:41.767Z,24.20
2022-10-05T11:55:16.970Z,23.40
2022-10-05T11:58:01.740Z,23.60
2022-10-05T12:00:50.905Z,24.20
2022-10-05T12:03:36.753Z,24.00
2022-10-05T12:06:31.558Z,24.70
2022-10-05T12:09:15.637Z,25.10
2022-10-05T12:12:08.340Z,25.40
2022-10-05T12:15:01.907Z,25.30
2022-10-05T12:17:47.014Z,24.20
2022-10-05T12:20:25.688Z,24.20
2022-10-05T12:23:04.163Z,24.50
2022-10-05T12:25:42.384Z,24.20
2022-10-05T12:28:14.944Z,24.40
2022-10-05T12:30:53.252Z,24.60
2022-10-05T12:33:42.499Z,24.90
2022-10-05T12:36:17.695Z,24.70
2022-10-05T12:38:56.630Z,24.90
2022-10-05T12:41:36.735Z,24.50
2022-10-05T12:44:09.409Z,24.40
2022-10-05T12:46:56.176Z,24.70
2022-10-05T12:49:45.301Z,24.00
2022-10-05T12:52:35.760Z,24.60
2022-10-05T12:55:08.289Z,24.80
2022-10-05T12:58:09.250Z,25.10
2022-10-05T13:00:52.170Z,24.90
2022-10-05T13:03:23.495Z,24.90
2022-10-05T13:06:27.490Z,24.90
2022-10-05T13:09:14.718Z,25.20
2022-10-05T13:11:58.414Z,25.30
2022-10-05T13:14:42.846Z,24.90
2022-10-05T13:17:30.119Z,24.70
2022-10-05T13:20:03.126Z,25.10
2022-10-05T13:22:50.763Z,24.30
2022-10-05T13:25:29.444Z,24.40
2022-10-05T13:28:04.761Z,24.60
2022-10-05T13:30:36.345Z,24.80
2022-10-05T13:33:08.592Z,25.00
2022-10-05T13:35:56.137Z,25.10
2022-10-05T13:38:41.461Z,24.90
2022-10-05T13:41:16.682Z,25.00
2022-10-05T13:44:10.713Z,24.80
2022-10-05T13:46:45.842Z,24.90
2022-10-05T13:49:29.310Z,25.30
2022-10-05T13:52:24.538Z,25.30
2022-10-05T13:55:02.778Z,25.40
2022-10-05T13:57:47.110Z,24.90
2022-10-05T14:00:26.298Z,24.90
2022-10-05T14:02:56.469Z,25.20
2022-10-05T14:05:33.817Z,24.70
2022-10-05T14:08:09.311Z,24.60
2022-10-05T14:10:47.485Z,24.40
2022-10-05T14:13:47.537Z,24.70
2022-10-05T14:16:22.515Z,24.80
2022-10-05T14:19:00.689Z,24.50
2022-10-05T14:21:32.670Z,24.70
2022-10-05T14:24:42.450Z,24.40
2022-10-05T14:26:56.824Z,24.40
2022-10-05T14:29:29.316Z,24.20
2022-10-05T14:32:04.845Z,24.30
2022-10-05T14:34:58.780Z,24.20
2022-10-05T14:37:34.424Z,24.40
2022-10-05T14:40:06.933Z,24.30
2022-10-05T14:42:43.732Z,24.50
2022-10-05T14:45:16.831Z,24.50
2022-10-05T14:47:56.441Z,24.00
2022-10-05T14:50:29.337Z,24.40
2022-10-05T14:53:18.193Z,24.10
2022-10-05T14:56:23.923Z,24.10
2022-10-05T14:59:05.536Z,24.00
2022-10-05T15:01:38.264Z,23.90
2022-10-05T15:04:30.637Z,23.80
2022-10-05T15:07:24.307Z,23.90
2022-10-05T15:10:00.578Z,23.90
2022-10-05T15:12:43.777Z,23.80
2022-10-05T15:15:19.013Z,23.80
2022-10-05T15:17:52.976Z,23.80
2022-10-05T15:20:25.502Z,23.80
2022-10-05T15:23:11.375Z,24.00
2022-10-05T15:25:46.515Z,23.90
2022-10-05T15:28:40.102Z,23.70
2022-10-05T15:31:27.739Z,23.50
2022-10-05T15:34:07.886Z,23.50
2022-10-05T15:36:47.646Z,23.50
2022-10-05T15:39:38.447Z,23.50
2022-10-05T15:42:14.907Z,23.70
2022-10-05T15:45:03.895Z,23.40
2022-10-05T15:48:10.010Z,23.50
2022-10-05T15:50:53.032Z,23.60
2022-10-05T15:53:34.169Z,23.40
2022-10-05T15:56:29.538Z,23.40
2022-10-05T15:59:02.565Z,23.30
2022-10-05T16:01:39.680Z,23.00
2022-10-05T16:04:20.925Z,23.00
2022-10-05T16:07:43.401Z,22.90
2022-10-05T16:10:43.609Z,23.00
2022-10-05T16:16:22.732Z,22.70
2022-10-05T16:18:46.938Z,22.70
2022-10-05T16:21:31.116Z,22.70
2022-10-05T16:24:06.679Z,22.70
2022-10-05T16:27:00.361Z,22.60
2022-10-05T16:29:35.463Z,22.40
2022-10-05T16:32:18.038Z,22.40
2022-10-05T16:34:54.292Z,22.20
2022-10-05T16:37:45.761Z,22.10
2022-10-05T16:40:28.958Z,22.10
2022-10-05T16:43:11.967Z,22.00
2022-10-05T16:46:03.878Z,21.90
2022-10-05T16:48:42.230Z,21.90
2022-10-05T16:51:29.755Z,22.00
2022-10-05T16:54:14.377Z,21.80
2022-10-05T16:56:46.873Z,21.80
2022-10-05T16:59:19.763Z,21.70
2022-10-05T17:02:14.769Z,21.60
2022-10-05T17:05:00.835Z,21.50
2022-10-05T17:07:34.995Z,21.50
2022-10-05T17:10:07.553Z,21.40
2022-10-05T17:13:05.813Z,21.40
2022-10-05T17:15:41.453Z,21.20
2022-10-05T17:18:29.342Z,21.20
2022-10-05T17:21:18.417Z,21.20
2022-10-05T17:24:02.759Z,21.10
2022-10-05T17:26:56.251Z,21.10
2022-10-05T17:29:52.675Z,21.00
2022-10-05T17:32:34.350Z,20.90
2022-10-05T17:35:22.228Z,20.80
2022-10-05T17:38:14.628Z,20.80
2022-10-05T17:41:03.388Z,20.60
2022-10-05T17:43:34.775Z,20.60
2022-10-05T17:46:07.478Z,20.60
2022-10-05T17:48:53.771Z,20.60
2022-10-05T17:51:50.010Z,20.50
2022-10-05T17:54:46.279Z,20.40
2022-10-05T17:57:19.047Z,20.40
2022-10-05T17:59:57.658Z,20.40
2022-10-05T18:02:39.681Z,20.40
2022-10-05T18:05:17.857Z,20.30
2022-10-05T18:07:50.864Z,20.30
2022-10-05T18:10:25.460Z,20.40
2022-10-05T18:13:03.895Z,20.30
2022-10-05T18:15:36.464Z,20.20
2022-10-05T18:18:42.244Z,20.20
2022-10-05T18:21:30.784Z,20.10
2022-10-05T18:24:15.314Z,20.10
2022-10-05T18:27:02.004Z,20.10
2022-10-05T18:29:52.110Z,20.10
2022-10-05T18:32:42.689Z,20.10
2022-10-05T18:35:37.107Z,20.00
2022-10-05T18:38:32.199Z,20.00
2022-10-05T18:41:23.234Z,19.90
2022-10-05T18:44:04.522Z,19.90
2022-10-05T18:46:46.704Z,19.80
2022-10-05T18:49:25.209Z,19.80
2022-10-05T18:52:13.419Z,19.70
2022-10-05T18:54:45.977Z,19.70
2022-10-05T18:57:42.835Z,19.70
2022-10-05T19:00:18.348Z,19.70
2022-10-05T19:03:13.613Z,19.70
2022-10-05T19:05:58.155Z,19.70
2022-10-05T19:08:31.163Z,19.70
2022-10-05T19:11:03.898Z,19.50
2022-10-05T19:13:39.533Z,19.60
2022-10-05T19:16:37.711Z,19.60
2022-10-05T19:19:33.156Z,19.60
2022-10-05T19:22:19.947Z,19.50
2022-10-05T19:25:01.967Z,19.50
2022-10-05T19:27:46.139Z,19.50
2022-10-05T19:30:25.252Z,19.50
2022-10-05T19:33:31.299Z,19.50
2022-10-05T19:36:12.625Z,19.60
2022-10-05T19:39:00.775Z,19.60
2022-10-05T19:41:52.080Z,19.40
2022-10-05T19:44:59.696Z,19.50
2022-10-05T19:47:53.221Z,19.60
2022-10-05T19:50:28.745Z,19.60
2022-10-05T19:53:04.148Z,19.50
2022-10-05T19:55:36.771Z,19.50
2022-10-05T19:58:10.925Z,19.50
2022-10-05T20:00:41.989Z,19.50
2022-10-05T20:03:22.077Z,19.50
2022-10-05T20:05:53.282Z,19.40
2022-10-05T20:08:26.336Z,19.40
2022-10-05T20:11:19.511Z,19.40
2022-10-05T20:14:05.940Z,19.30
2022-10-05T20:16:55.746Z,19.30
2022-10-05T20:19:51.382Z,19.30
2022-10-05T20:22:29.843Z,19.20
2022-10-05T20:25:02.089Z,19.20
2022-10-05T20:27:43.330Z,19.10
2022-10-05T20:30:15.835Z,19.20
2022-10-05T20:32:46.850Z,19.30
2022-10-05T20:35:17.619Z,19.20
2022-10-05T20:37:47.040Z,19.20
2022-10-05T20:40:18.109Z,19.10
2022-10-05T20:42:48.728Z,19.20
2022-10-05T20:45:18.159Z,19.20
2022-10-05T20:47:47.731Z,19.10
2022-10-05T20:50:17.592Z,19.00
2022-10-05T20:52:47.863Z,19.20
2022-10-05T20:55:17.444Z,19.20
2022-10-05T20:57:47.839Z,19.20
2022-10-05T21:00:17.473Z,19.30
2022-10-05T21:02:47.012Z,19.20
2022-10-05T21:05:18.574Z,19.30
2022-10-05T21:07:48.239Z,19.40
2022-10-05T21:10:18.638Z,19.30
2022-10-05T21:12:48.183Z,19.20
2022-10-05T21:15:18.694Z,19.30
2022-10-05T21:17:48.179Z,19.30
2022-10-05T21:20:17.624Z,19.30
2022-10-05T21:22:47.049Z,19.30
2022-10-05T21:25:16.617Z,19.10
2022-10-05T21:27:47.803Z,19.10
2022-10-05T21:30:17.284Z,19.00
2022-10-05T21:32:48.544Z,19.00
2022-10-05T21:35:18.049Z,18.90
2022-10-05T21:37:47.496Z,18.90
2022-10-05T21:40:17.213Z,19.00
2022-10-05T21:42:46.715Z,19.00
2022-10-05T21:45:16.222Z,19.00
2022-10-05T21:47:45.728Z,19.10
2022-10-05T21:50:15.443Z,19.20
2022-10-05T21:52:44.947Z,19.10
2022-10-05T21:55:14.444Z,19.00
2022-10-05T21:57:45.440Z,19.10
2022-10-05T22:00:16.802Z,19.10
2022-10-05T22:02:46.360Z,19.20
2022-10-05T22:05:16.657Z,19.20
2022-10-05T22:07:46.097Z,19.20
2022-10-05T22:10:16.536Z,19.10
2022-10-05T22:12:47.646Z,19.20
2022-10-05T22:15:17.141Z,19.10
2022-10-05T22:17:50.071Z,19.20
2022-10-05T22:20:20.280Z,19.30
2022-10-05T22:22:49.676Z,19.40
2022-10-05T22:25:20.786Z,19.40
2022-10-05T22:27:51.407Z,19.40
2022-10-05T22:30:21.605Z,19.40
2022-10-05T22:32:51.093Z,19.40
2022-10-05T22:35:20.593Z,19.50
2022-10-05T22:37:50.519Z,19.40
2022-10-05T22:40:20.150Z,19.40
2022-10-05T22:42:49.575Z,19.30
2022-10-05T22:45:19.016Z,19.00
2022-10-05T22:47:48.525Z,18.90
2022-10-05T22:50:18.024Z,18.80
2022-10-05T22:52:52.527Z,18.80
2022-10-05T22:55:22.700Z,18.70
2022-10-05T22:57:52.271Z,18.70
2022-10-05T23:00:27.551Z,18.70
2022-10-05T23:02:52.848Z,18.70
2022-10-05T23:05:22.295Z,18.70
2022-10-05T23:07:51.715Z,18.60
2022-10-05T23:10:21.309Z,18.60
2022-10-05T23:13:00.997Z,18.60
2022-10-05T23:15:29.849Z,18.60
2022-10-05T23:17:59.272Z,18.70
2022-10-05T23:20:29.651Z,18.60
2022-10-05T23:23:01.023Z,18.50
2022-10-05T23:25:30.465Z,18.40
2022-10-05T23:27:59.979Z,18.30
2022-10-05T23:30:30.368Z,18.40
2022-10-05T23:32:59.874Z,18.30
2022-10-05T23:35:29.303Z,18.30
2022-10-05T23:37:58.868Z,18.40
2022-10-05T23:40:28.295Z,18.40
2022-10-05T23:42:58.004Z,18.20
2022-10-05T23:45:27.495Z,18.30
2022-10-05T23:47:56.944Z,18.30
2022-10-05T23:50:27.226Z,18.30
2022-10-05T23:52:56.676Z,18.30
2022-10-05T23:55:26.171Z,18.30
2022-10-05T23:57:55.624Z,18.20
